sensor_id;sensor_type;location;lat;lon;timestamp;temperature;humidity
12434;DHT22;6281;49.038;8.372;2023-05-07T00:01:51;14.80;99.90
12434;DHT22;6281;49.038;8.372;2023-05-07T00:04:18;14.60;99.90
12434;DHT22;6281;49.038;8.372;2023-05-07T00:06:46;14.30;99.90
12434;DHT22;6281;49.038;8.372;2023-05-07T00:09:16;14.10;99.90
12434;DHT22;6281;49.038;8.372;2023-05-07T00:11:43;14.30;99.90
12434;DHT22;6281;49.038;8.372;2023-05-07T00:14:10;14.30;99.90
12434;DHT22;6281;49.038;8.372;2023-05-07T00:16:37;14.50;99.90
12434;DHT22;6281;49.038;8.372;2023-05-07T00:19:04;14.60;99.90
12434;DHT22;6281;49.038;8.372;2023-05-07T00:21:31;14.70;99.90
12434;DHT22;6281;49.038;8.372;2023-05-07T00:24:01;14.70;99.90
12434;DHT22;6281;49.038;8.372;2023-05-07T00:26:29;14.40;99.90
12434;DHT22;6281;49.038;8.372;2023-05-07T00:28:56;14.30;99.90
12434;DHT22;6281;49.038;8.372;2023-05-07T00:31:23;14.30;99.90
12434;DHT22;6281;49.038;8.372;2023-05-07T00:33:50;14.50;99.90
12434;DHT22;6281;49.038;8.372;2023-05-07T00:36:16;14.60;99.90
12434;DHT22;6281;49.038;8.372;2023-05-07T00:38:43;14.60;99.90
12434;DHT22;6281;49.038;8.372;2023-05-07T00:41:10;14.50;99.90
12434;DHT22;6281;49.038;8.372;2023-05-07T00:43:38;14.50;99.90
12434;DHT22;6281;49.038;8.372;2023-05-07T00:46:06;14.50;99.90
12434;DHT22;6281;49.038;8.372;2023-05-07T00:48:33;14.40;99.90
12434;DHT22;6281;49.038;8.372;2023-05-07T00:50:59;14.40;99.90
12434;DHT22;6281;49.038;8.372;2023-05-07T00:53:26;14.50;99.90
12434;DHT22;6281;49.038;8.372;2023-05-07T00:55:53;14.50;99.90
12434;DHT22;6281;49.038;8.372;2023-05-07T00:58:21;14.50;99.90
12434;DHT22;6281;49.038;8.372;2023-05-07T01:00:52;14.50;99.90
12434;DHT22;6281;49.038;8.372;2023-05-07T01:03:21;14.50;99.90
12434;DHT22;6281;49.038;8.372;2023-05-07T01:05:48;14.40;99.90
12434;DHT22;6281;49.038;8.372;2023-05-07T01:08:17;14.30;99.90
12434;DHT22;6281;49.038;8.372;2023-05-07T01:10:44;14.40;99.90
12434;DHT22;6281;49.038;8.372;2023-05-07T01:13:13;14.40;99.90
12434;DHT22;6281;49.038;8.372;2023-05-07T01:15:40;14.40;99.90
12434;DHT22;6281;49.038;8.372;2023-05-07T01:18:08;14.50;99.90
12434;DHT22;6281;49.038;8.372;2023-05-07T01:20:35;14.30;99.90
12434;DHT22;6281;49.038;8.372;2023-05-07T01:23:04;14.40;99.90
12434;DHT22;6281;49.038;8.372;2023-05-07T01:25:31;14.40;99.90
12434;DHT22;6281;49.038;8.372;2023-05-07T01:27:58;14.20;99.90
12434;DHT22;6281;49.038;8.372;2023-05-07T01:30:27;14.20;99.90
12434;DHT22;6281;49.038;8.372;2023-05-07T01:33:00;14.20;99.90
12434;DHT22;6281;49.038;8.372;2023-05-07T01:35:34;14.10;99.90
12434;DHT22;6281;49.038;8.372;2023-05-07T01:38:03;14.10;99.90
12434;DHT22;6281;49.038;8.372;2023-05-07T01:40:31;14.20;99.90
12434;DHT22;6281;49.038;8.372;2023-05-07T01:43:02;14.20;99.90
12434;DHT22;6281;49.038;8.372;2023-05-07T01:45:33;14.20;99.90
12434;DHT22;6281;49.038;8.372;2023-05-07T01:48:03;14.20;99.90
12434;DHT22;6281;49.038;8.372;2023-05-07T01:50:31;14.20;99.90
12434;DHT22;6281;49.038;8.372;2023-05-07T01:52:58;14.20;99.90
12434;DHT22;6281;49.038;8.372;2023-05-07T01:55:26;14.10;99.90
12434;DHT22;6281;49.038;8.372;2023-05-07T01:57:53;14.30;99.90
12434;DHT22;6281;49.038;8.372;2023-05-07T02:00:23;14.30;99.90
12434;DHT22;6281;49.038;8.372;2023-05-07T02:02:50;14.30;99.90
12434;DHT22;6281;49.038;8.372;2023-05-07T02:05:18;14.30;99.90
12434;DHT22;6281;49.038;8.372;2023-05-07T02:07:45;14.20;99.90
12434;DHT22;6281;49.038;8.372;2023-05-07T02:10:11;14.10;99.90
12434;DHT22;6281;49.038;8.372;2023-05-07T02:12:40;14.10;99.90
12434;DHT22;6281;49.038;8.372;2023-05-07T02:15:08;14.00;99.90
12434;DHT22;6281;49.038;8.372;2023-05-07T02:17:39;14.00;99.90
12434;DHT22;6281;49.038;8.372;2023-05-07T02:20:24;13.90;99.90
12434;DHT22;6281;49.038;8.372;2023-05-07T02:22:51;13.90;99.90
12434;DHT22;6281;49.038;8.372;2023-05-07T02:25:18;13.90;99.90
12434;DHT22;6281;49.038;8.372;2023-05-07T02:27:46;13.90;99.90
12434;DHT22;6281;49.038;8.372;2023-05-07T02:30:14;14.00;99.90
12434;DHT22;6281;49.038;8.372;2023-05-07T02:32:41;14.00;99.90
12434;DHT22;6281;49.038;8.372;2023-05-07T02:35:09;13.90;99.90
12434;DHT22;6281;49.038;8.372;2023-05-07T02:37:36;13.90;99.90
12434;DHT22;6281;49.038;8.372;2023-05-07T02:40:04;13.90;99.90
12434;DHT22;6281;49.038;8.372;2023-05-07T02:42:31;13.80;99.90
12434;DHT22;6281;49.038;8.372;2023-05-07T02:44:59;13.70;99.90
12434;DHT22;6281;49.038;8.372;2023-05-07T02:47:28;13.70;99.90
12434;DHT22;6281;49.038;8.372;2023-05-07T02:49:55;13.70;99.90
12434;DHT22;6281;49.038;8.372;2023-05-07T02:52:22;13.60;99.90
12434;DHT22;6281;49.038;8.372;2023-05-07T02:54:49;13.70;99.90
12434;DHT22;6281;49.038;8.372;2023-05-07T02:57:16;13.70;99.90
12434;DHT22;6281;49.038;8.372;2023-05-07T02:59:43;13.60;99.90
12434;DHT22;6281;49.038;8.372;2023-05-07T03:02:12;13.50;99.90
12434;DHT22;6281;49.038;8.372;2023-05-07T03:04:39;13.50;99.90
12434;DHT22;6281;49.038;8.372;2023-05-07T03:07:06;13.50;99.90
12434;DHT22;6281;49.038;8.372;2023-05-07T03:09:33;13.50;99.90
12434;DHT22;6281;49.038;8.372;2023-05-07T03:12:00;13.40;99.90
12434;DHT22;6281;49.038;8.372;2023-05-07T03:14:27;13.30;99.90
12434;DHT22;6281;49.038;8.372;2023-05-07T03:16:54;13.50;99.90
12434;DHT22;6281;49.038;8.372;2023-05-07T03:19:22;13.50;99.90
12434;DHT22;6281;49.038;8.372;2023-05-07T03:21:49;13.40;99.90
12434;DHT22;6281;49.038;8.372;2023-05-07T03:24:16;13.40;99.90
12434;DHT22;6281;49.038;8.372;2023-05-07T03:26:43;13.30;99.90
12434;DHT22;6281;49.038;8.372;2023-05-07T03:29:10;13.30;99.90
12434;DHT22;6281;49.038;8.372;2023-05-07T03:31:37;13.30;99.90
12434;DHT22;6281;49.038;8.372;2023-05-07T03:34:04;13.40;99.90
12434;DHT22;6281;49.038;8.372;2023-05-07T03:36:32;13.50;99.90
12434;DHT22;6281;49.038;8.372;2023-05-07T03:38:59;13.40;99.90
12434;DHT22;6281;49.038;8.372;2023-05-07T03:41:26;13.40;99.90
12434;DHT22;6281;49.038;8.372;2023-05-07T03:43:55;13.30;99.90
12434;DHT22;6281;49.038;8.372;2023-05-07T03:46:22;13.20;99.90
12434;DHT22;6281;49.038;8.372;2023-05-07T03:49:22;13.30;99.90
12434;DHT22;6281;49.038;8.372;2023-05-07T03:51:50;13.30;99.90
12434;DHT22;6281;49.038;8.372;2023-05-07T03:54:17;13.30;99.90
12434;DHT22;6281;49.038;8.372;2023-05-07T03:56:44;13.40;99.90
12434;DHT22;6281;49.038;8.372;2023-05-07T03:59:11;13.40;99.90
12434;DHT22;6281;49.038;8.372;2023-05-07T04:01:38;13.50;99.90
12434;DHT22;6281;49.038;8.372;2023-05-07T04:04:05;13.50;99.90
12434;DHT22;6281;49.038;8.372;2023-05-07T04:06:32;13.50;99.90
12434;DHT22;6281;49.038;8.372;2023-05-07T04:09:01;13.50;99.90
12434;DHT22;6281;49.038;8.372;2023-05-07T04:11:27;13.40;99.90
12434;DHT22;6281;49.038;8.372;2023-05-07T04:13:54;13.50;99.90
12434;DHT22;6281;49.038;8.372;2023-05-07T04:16:21;13.40;99.90
12434;DHT22;6281;49.038;8.372;2023-05-07T04:18:48;13.30;99.90
12434;DHT22;6281;49.038;8.372;2023-05-07T04:21:16;13.40;99.90
12434;DHT22;6281;49.038;8.372;2023-05-07T04:23:43;13.40;99.90
12434;DHT22;6281;49.038;8.372;2023-05-07T04:26:11;13.40;99.90
12434;DHT22;6281;49.038;8.372;2023-05-07T04:28:39;13.40;99.90
12434;DHT22;6281;49.038;8.372;2023-05-07T04:31:06;13.50;99.90
12434;DHT22;6281;49.038;8.372;2023-05-07T04:33:33;13.30;99.90
12434;DHT22;6281;49.038;8.372;2023-05-07T04:36:02;13.40;99.90
12434;DHT22;6281;49.038;8.372;2023-05-07T04:38:29;13.40;99.90
12434;DHT22;6281;49.038;8.372;2023-05-07T04:40:57;13.40;99.90
12434;DHT22;6281;49.038;8.372;2023-05-07T04:43:25;13.30;99.90
12434;DHT22;6281;49.038;8.372;2023-05-07T04:45:52;13.50;99.90
12434;DHT22;6281;49.038;8.372;2023-05-07T04:48:19;13.50;99.90
12434;DHT22;6281;49.038;8.372;2023-05-07T04:50:47;13.50;99.90
12434;DHT22;6281;49.038;8.372;2023-05-07T04:53:14;13.70;99.90
12434;DHT22;6281;49.038;8.372;2023-05-07T04:55:41;13.60;99.90
12434;DHT22;6281;49.038;8.372;2023-05-07T04:58:09;13.40;99.90
12434;DHT22;6281;49.038;8.372;2023-05-07T05:00:37;13.60;99.90
12434;DHT22;6281;49.038;8.372;2023-05-07T05:03:05;13.60;99.90
12434;DHT22;6281;49.038;8.372;2023-05-07T05:05:32;13.70;99.90
12434;DHT22;6281;49.038;8.372;2023-05-07T05:07:59;13.60;99.90
12434;DHT22;6281;49.038;8.372;2023-05-07T05:10:26;13.50;99.90
12434;DHT22;6281;49.038;8.372;2023-05-07T05:12:53;13.80;99.90
12434;DHT22;6281;49.038;8.372;2023-05-07T05:15:20;13.90;99.90
12434;DHT22;6281;49.038;8.372;2023-05-07T05:17:48;13.80;99.90
12434;DHT22;6281;49.038;8.372;2023-05-07T05:20:15;14.00;99.90
12434;DHT22;6281;49.038;8.372;2023-05-07T05:22:42;14.10;99.90
12434;DHT22;6281;49.038;8.372;2023-05-07T05:25:09;14.30;99.90
12434;DHT22;6281;49.038;8.372;2023-05-07T05:27:36;14.10;99.90
12434;DHT22;6281;49.038;8.372;2023-05-07T05:30:04;14.30;99.90
12434;DHT22;6281;49.038;8.372;2023-05-07T05:32:31;14.30;99.90
12434;DHT22;6281;49.038;8.372;2023-05-07T05:34:59;14.50;99.90
12434;DHT22;6281;49.038;8.372;2023-05-07T05:37:27;14.50;99.90
12434;DHT22;6281;49.038;8.372;2023-05-07T05:39:55;14.70;99.90
12434;DHT22;6281;49.038;8.372;2023-05-07T05:42:22;14.80;99.90
12434;DHT22;6281;49.038;8.372;2023-05-07T05:44:49;14.80;99.90
12434;DHT22;6281;49.038;8.372;2023-05-07T05:47:16;14.90;99.90
12434;DHT22;6281;49.038;8.372;2023-05-07T05:49:43;15.00;99.90
12434;DHT22;6281;49.038;8.372;2023-05-07T05:52:11;15.00;99.90
12434;DHT22;6281;49.038;8.372;2023-05-07T05:54:39;14.90;99.90
12434;DHT22;6281;49.038;8.372;2023-05-07T05:57:06;15.10;99.90
12434;DHT22;6281;49.038;8.372;2023-05-07T05:59:33;15.20;99.90
12434;DHT22;6281;49.038;8.372;2023-05-07T06:02:00;15.20;99.90
12434;DHT22;6281;49.038;8.372;2023-05-07T06:04:27;15.20;99.90
12434;DHT22;6281;49.038;8.372;2023-05-07T06:06:54;15.30;99.90
12434;DHT22;6281;49.038;8.372;2023-05-07T06:09:23;15.40;99.90
12434;DHT22;6281;49.038;8.372;2023-05-07T06:11:50;15.50;99.90
12434;DHT22;6281;49.038;8.372;2023-05-07T06:14:17;15.40;99.90
12434;DHT22;6281;49.038;8.372;2023-05-07T06:16:44;15.60;99.90
12434;DHT22;6281;49.038;8.372;2023-05-07T06:19:11;15.70;99.90
12434;DHT22;6281;49.038;8.372;2023-05-07T06:21:39;15.80;99.90
12434;DHT22;6281;49.038;8.372;2023-05-07T06:24:07;15.90;99.90
12434;DHT22;6281;49.038;8.372;2023-05-07T06:26:35;15.90;99.90
12434;DHT22;6281;49.038;8.372;2023-05-07T06:29:02;16.10;99.90
12434;DHT22;6281;49.038;8.372;2023-05-07T06:31:30;16.20;99.90
12434;DHT22;6281;49.038;8.372;2023-05-07T06:33:58;16.20;99.90
12434;DHT22;6281;49.038;8.372;2023-05-07T06:36:25;16.30;99.90
12434;DHT22;6281;49.038;8.372;2023-05-07T06:38:52;16.40;99.90
12434;DHT22;6281;49.038;8.372;2023-05-07T06:41:20;16.50;99.90
12434;DHT22;6281;49.038;8.372;2023-05-07T06:43:48;16.50;99.90
12434;DHT22;6281;49.038;8.372;2023-05-07T06:46:15;16.60;99.90
12434;DHT22;6281;49.038;8.372;2023-05-07T06:48:42;16.60;99.90
12434;DHT22;6281;49.038;8.372;2023-05-07T06:51:09;16.70;99.90
12434;DHT22;6281;49.038;8.372;2023-05-07T06:53:36;16.60;99.90
12434;DHT22;6281;49.038;8.372;2023-05-07T06:56:03;16.70;99.90
12434;DHT22;6281;49.038;8.372;2023-05-07T06:58:30;16.80;99.90
12434;DHT22;6281;49.038;8.372;2023-05-07T07:00:58;17.00;99.90
12434;DHT22;6281;49.038;8.372;2023-05-07T07:03:25;17.10;99.90
12434;DHT22;6281;49.038;8.372;2023-05-07T07:05:52;17.30;99.90
12434;DHT22;6281;49.038;8.372;2023-05-07T07:08:19;17.40;99.90
12434;DHT22;6281;49.038;8.372;2023-05-07T07:10:46;17.60;99.90
12434;DHT22;6281;49.038;8.372;2023-05-07T07:13:14;17.70;99.90
12434;DHT22;6281;49.038;8.372;2023-05-07T07:15:41;17.80;99.90
12434;DHT22;6281;49.038;8.372;2023-05-07T07:18:09;17.90;99.90
12434;DHT22;6281;49.038;8.372;2023-05-07T07:20:36;17.80;99.90
12434;DHT22;6281;49.038;8.372;2023-05-07T07:23:03;18.00;99.90
12434;DHT22;6281;49.038;8.372;2023-05-07T07:25:30;18.10;99.90
12434;DHT22;6281;49.038;8.372;2023-05-07T07:27:57;18.10;99.90
12434;DHT22;6281;49.038;8.372;2023-05-07T07:30:23;18.30;99.90
12434;DHT22;6281;49.038;8.372;2023-05-07T07:32:51;18.20;99.90
12434;DHT22;6281;49.038;8.372;2023-05-07T07:35:19;18.20;99.90
12434;DHT22;6281;49.038;8.372;2023-05-07T07:37:47;18.20;99.90
12434;DHT22;6281;49.038;8.372;2023-05-07T07:40:15;18.00;99.90
12434;DHT22;6281;49.038;8.372;2023-05-07T07:42:42;18.20;99.90
12434;DHT22;6281;49.038;8.372;2023-05-07T07:45:10;18.60;99.90
12434;DHT22;6281;49.038;8.372;2023-05-07T07:47:37;18.60;99.90
12434;DHT22;6281;49.038;8.372;2023-05-07T07:50:05;18.60;99.90
12434;DHT22;6281;49.038;8.372;2023-05-07T07:52:34;18.60;99.90
12434;DHT22;6281;49.038;8.372;2023-05-07T07:55:01;18.80;99.90
12434;DHT22;6281;49.038;8.372;2023-05-07T07:57:28;19.00;99.90
12434;DHT22;6281;49.038;8.372;2023-05-07T07:59:55;18.90;99.90
12434;DHT22;6281;49.038;8.372;2023-05-07T08:02:22;18.90;99.90
12434;DHT22;6281;49.038;8.372;2023-05-07T08:04:49;18.80;99.90
12434;DHT22;6281;49.038;8.372;2023-05-07T08:07:16;18.90;99.90
12434;DHT22;6281;49.038;8.372;2023-05-07T08:09:45;19.20;99.90
12434;DHT22;6281;49.038;8.372;2023-05-07T08:12:12;19.30;99.90
12434;DHT22;6281;49.038;8.372;2023-05-07T08:14:39;19.40;99.90
12434;DHT22;6281;49.038;8.372;2023-05-07T08:17:06;19.60;99.90
12434;DHT22;6281;49.038;8.372;2023-05-07T08:19:35;19.70;99.90
12434;DHT22;6281;49.038;8.372;2023-05-07T08:22:02;19.50;99.90
12434;DHT22;6281;49.038;8.372;2023-05-07T08:24:29;19.80;99.90
12434;DHT22;6281;49.038;8.372;2023-05-07T08:26:57;19.50;99.90
12434;DHT22;6281;49.038;8.372;2023-05-07T08:29:24;19.60;99.90
12434;DHT22;6281;49.038;8.372;2023-05-07T08:31:51;19.90;99.90
12434;DHT22;6281;49.038;8.372;2023-05-07T08:34:17;20.10;99.90
12434;DHT22;6281;49.038;8.372;2023-05-07T08:36:44;20.00;99.90
12434;DHT22;6281;49.038;8.372;2023-05-07T08:39:13;20.10;99.90
12434;DHT22;6281;49.038;8.372;2023-05-07T08:41:40;19.80;99.90
12434;DHT22;6281;49.038;8.372;2023-05-07T08:44:13;20.00;99.90
12434;DHT22;6281;49.038;8.372;2023-05-07T08:46:41;19.90;99.90
12434;DHT22;6281;49.038;8.372;2023-05-07T08:49:09;20.00;99.90
12434;DHT22;6281;49.038;8.372;2023-05-07T08:51:36;20.40;99.90
12434;DHT22;6281;49.038;8.372;2023-05-07T08:54:03;20.00;99.90
12434;DHT22;6281;49.038;8.372;2023-05-07T08:56:30;20.30;99.90
12434;DHT22;6281;49.038;8.372;2023-05-07T08:58:57;20.70;99.90
12434;DHT22;6281;49.038;8.372;2023-05-07T09:01:26;21.00;99.90
12434;DHT22;6281;49.038;8.372;2023-05-07T09:03:53;21.10;99.90
12434;DHT22;6281;49.038;8.372;2023-05-07T09:06:20;21.20;99.90
12434;DHT22;6281;49.038;8.372;2023-05-07T09:08:49;21.40;99.90
12434;DHT22;6281;49.038;8.372;2023-05-07T09:11:20;21.70;99.90
12434;DHT22;6281;49.038;8.372;2023-05-07T09:13:47;21.70;99.90
12434;DHT22;6281;49.038;8.372;2023-05-07T09:16:15;21.20;99.90
12434;DHT22;6281;49.038;8.372;2023-05-07T09:18:43;21.50;99.90
12434;DHT22;6281;49.038;8.372;2023-05-07T09:21:11;21.80;99.90
12434;DHT22;6281;49.038;8.372;2023-05-07T09:23:38;21.90;99.90
12434;DHT22;6281;49.038;8.372;2023-05-07T09:26:06;22.20;99.90
12434;DHT22;6281;49.038;8.372;2023-05-07T09:28:38;21.90;99.90
12434;DHT22;6281;49.038;8.372;2023-05-07T09:31:05;22.20;99.90
12434;DHT22;6281;49.038;8.372;2023-05-07T09:33:32;21.90;99.90
12434;DHT22;6281;49.038;8.372;2023-05-07T09:36:02;22.10;99.90
12434;DHT22;6281;49.038;8.372;2023-05-07T09:38:29;22.40;99.90
12434;DHT22;6281;49.038;8.372;2023-05-07T09:41:03;22.30;99.90
12434;DHT22;6281;49.038;8.372;2023-05-07T09:43:32;22.90;99.90
12434;DHT22;6281;49.038;8.372;2023-05-07T09:46:07;23.00;99.90
12434;DHT22;6281;49.038;8.372;2023-05-07T09:48:37;22.90;99.90
12434;DHT22;6281;49.038;8.372;2023-05-07T09:51:15;23.50;99.90
12434;DHT22;6281;49.038;8.372;2023-05-07T09:53:45;24.30;99.90
12434;DHT22;6281;49.038;8.372;2023-05-07T09:56:13;24.10;99.90
12434;DHT22;6281;49.038;8.372;2023-05-07T09:58:41;24.70;99.90
12434;DHT22;6281;49.038;8.372;2023-05-07T10:01:10;26.80;99.90
12434;DHT22;6281;49.038;8.372;2023-05-07T10:03:40;27.80;94.70
12434;DHT22;6281;49.038;8.372;2023-05-07T10:06:09;29.30;81.40
12434;DHT22;6281;49.038;8.372;2023-05-07T10:08:36;27.50;80.90
12434;DHT22;6281;49.038;8.372;2023-05-07T10:11:04;28.00;83.20
12434;DHT22;6281;49.038;8.372;2023-05-07T10:13:31;28.90;75.00
12434;DHT22;6281;49.038;8.372;2023-05-07T10:15:59;28.70;69.30
12434;DHT22;6281;49.038;8.372;2023-05-07T10:18:26;29.00;69.20
12434;DHT22;6281;49.038;8.372;2023-05-07T10:21:01;29.30;67.90
12434;DHT22;6281;49.038;8.372;2023-05-07T10:23:31;28.30;73.70
12434;DHT22;6281;49.038;8.372;2023-05-07T10:26:02;29.00;71.80
12434;DHT22;6281;49.038;8.372;2023-05-07T10:28:37;27.10;83.10
12434;DHT22;6281;49.038;8.372;2023-05-07T10:31:15;29.30;71.30
12434;DHT22;6281;49.038;8.372;2023-05-07T10:33:46;29.70;71.80
12434;DHT22;6281;49.038;8.372;2023-05-07T10:36:13;31.10;61.00
12434;DHT22;6281;49.038;8.372;2023-05-07T10:38:42;28.90;59.30
12434;DHT22;6281;49.038;8.372;2023-05-07T10:41:09;28.00;66.70
12434;DHT22;6281;49.038;8.372;2023-05-07T10:43:43;30.90;60.00
12434;DHT22;6281;49.038;8.372;2023-05-07T10:46:10;29.10;63.90
12434;DHT22;6281;49.038;8.372;2023-05-07T10:51:41;30.80;59.00
12434;DHT22;6281;49.038;8.372;2023-05-07T10:54:24;29.20;72.80
12434;DHT22;6281;49.038;8.372;2023-05-07T10:56:51;29.40;71.60
12434;DHT22;6281;49.038;8.372;2023-05-07T10:59:33;29.70;71.10
12434;DHT22;6281;49.038;8.372;2023-05-07T11:02:02;29.60;70.00
12434;DHT22;6281;49.038;8.372;2023-05-07T11:04:32;30.00;65.00
12434;DHT22;6281;49.038;8.372;2023-05-07T11:07:28;27.90;79.20
12434;DHT22;6281;49.038;8.372;2023-05-07T11:10:04;27.30;70.90
12434;DHT22;6281;49.038;8.372;2023-05-07T11:13:01;28.00;79.60
12434;DHT22;6281;49.038;8.372;2023-05-07T11:15:39;27.60;81.60
12434;DHT22;6281;49.038;8.372;2023-05-07T11:18:07;27.50;75.60
12434;DHT22;6281;49.038;8.372;2023-05-07T11:20:49;27.60;71.80
12434;DHT22;6281;49.038;8.372;2023-05-07T11:26:47;28.10;69.80
12434;DHT22;6281;49.038;8.372;2023-05-07T11:29:16;27.60;71.00
12434;DHT22;6281;49.038;8.372;2023-05-07T11:31:43;28.90;74.50
12434;DHT22;6281;49.038;8.372;2023-05-07T11:34:11;27.90;79.40
12434;DHT22;6281;49.038;8.372;2023-05-07T11:36:42;28.20;84.40
12434;DHT22;6281;49.038;8.372;2023-05-07T11:39:26;28.40;80.70
12434;DHT22;6281;49.038;8.372;2023-05-07T11:41:55;28.20;78.60
12434;DHT22;6281;49.038;8.372;2023-05-07T11:44:22;29.00;67.80
12434;DHT22;6281;49.038;8.372;2023-05-07T11:46:49;28.50;63.20
12434;DHT22;6281;49.038;8.372;2023-05-07T11:49:17;27.90;66.80
12434;DHT22;6281;49.038;8.372;2023-05-07T11:51:43;28.60;64.30
12434;DHT22;6281;49.038;8.372;2023-05-07T11:54:15;29.60;66.40
12434;DHT22;6281;49.038;8.372;2023-05-07T11:56:44;29.50;71.40
12434;DHT22;6281;49.038;8.372;2023-05-07T11:59:17;28.70;77.70
12434;DHT22;6281;49.038;8.372;2023-05-07T12:01:45;29.00;84.60
12434;DHT22;6281;49.038;8.372;2023-05-07T12:04:12;29.20;68.10
12434;DHT22;6281;49.038;8.372;2023-05-07T12:06:39;28.90;72.90
12434;DHT22;6281;49.038;8.372;2023-05-07T12:09:06;28.20;70.90
12434;DHT22;6281;49.038;8.372;2023-05-07T12:11:36;28.50;75.70
12434;DHT22;6281;49.038;8.372;2023-05-07T12:14:05;28.10;66.10
12434;DHT22;6281;49.038;8.372;2023-05-07T12:16:33;27.40;66.20
12434;DHT22;6281;49.038;8.372;2023-05-07T12:19:00;27.90;67.70
12434;DHT22;6281;49.038;8.372;2023-05-07T12:21:28;28.20;63.40
12434;DHT22;6281;49.038;8.372;2023-05-07T12:23:56;27.30;67.30
12434;DHT22;6281;49.038;8.372;2023-05-07T12:26:23;27.20;71.50
12434;DHT22;6281;49.038;8.372;2023-05-07T12:28:50;27.90;66.60
12434;DHT22;6281;49.038;8.372;2023-05-07T12:31:17;27.90;67.00
12434;DHT22;6281;49.038;8.372;2023-05-07T12:33:45;27.40;66.80
12434;DHT22;6281;49.038;8.372;2023-05-07T12:36:13;27.90;66.90
12434;DHT22;6281;49.038;8.372;2023-05-07T12:38:40;27.10;68.40
12434;DHT22;6281;49.038;8.372;2023-05-07T12:41:12;27.00;70.90
12434;DHT22;6281;49.038;8.372;2023-05-07T12:43:39;27.10;73.80
12434;DHT22;6281;49.038;8.372;2023-05-07T12:46:07;26.40;73.90
12434;DHT22;6281;49.038;8.372;2023-05-07T12:48:36;25.70;79.10
12434;DHT22;6281;49.038;8.372;2023-05-07T12:51:05;26.40;79.50
12434;DHT22;6281;49.038;8.372;2023-05-07T12:53:33;26.70;79.00
12434;DHT22;6281;49.038;8.372;2023-05-07T12:56:02;26.00;81.10
12434;DHT22;6281;49.038;8.372;2023-05-07T12:58:33;25.10;84.50
12434;DHT22;6281;49.038;8.372;2023-05-07T13:01:03;25.50;83.30
12434;DHT22;6281;49.038;8.372;2023-05-07T13:03:32;25.40;84.20
12434;DHT22;6281;49.038;8.372;2023-05-07T13:06:01;25.90;80.60
12434;DHT22;6281;49.038;8.372;2023-05-07T13:08:31;26.30;80.10
12434;DHT22;6281;49.038;8.372;2023-05-07T13:10:59;26.70;79.20
12434;DHT22;6281;49.038;8.372;2023-05-07T13:13:29;26.90;82.10
12434;DHT22;6281;49.038;8.372;2023-05-07T13:15:55;27.50;70.30
12434;DHT22;6281;49.038;8.372;2023-05-07T13:18:23;27.30;69.80
12434;DHT22;6281;49.038;8.372;2023-05-07T13:20:50;26.40;73.90
12434;DHT22;6281;49.038;8.372;2023-05-07T13:23:17;26.40;74.20
12434;DHT22;6281;49.038;8.372;2023-05-07T13:25:46;27.90;73.70
12434;DHT22;6281;49.038;8.372;2023-05-07T13:28:12;27.00;78.10
12434;DHT22;6281;49.038;8.372;2023-05-07T13:30:39;26.80;85.60
12434;DHT22;6281;49.038;8.372;2023-05-07T13:33:07;25.70;91.10
12434;DHT22;6281;49.038;8.372;2023-05-07T13:35:34;25.60;94.00
12434;DHT22;6281;49.038;8.372;2023-05-07T13:38:01;25.30;98.70
12434;DHT22;6281;49.038;8.372;2023-05-07T13:40:28;25.30;99.90
12434;DHT22;6281;49.038;8.372;2023-05-07T13:42:58;25.10;99.90
12434;DHT22;6281;49.038;8.372;2023-05-07T13:45:27;25.10;99.90
12434;DHT22;6281;49.038;8.372;2023-05-07T13:47:55;25.70;99.90
12434;DHT22;6281;49.038;8.372;2023-05-07T13:50:22;26.20;99.90
12434;DHT22;6281;49.038;8.372;2023-05-07T13:52:49;25.60;99.90
12434;DHT22;6281;49.038;8.372;2023-05-07T13:55:17;25.80;99.90
12434;DHT22;6281;49.038;8.372;2023-05-07T13:57:44;25.60;99.90
12434;DHT22;6281;49.038;8.372;2023-05-07T14:00:14;25.50;99.90
12434;DHT22;6281;49.038;8.372;2023-05-07T14:02:41;25.40;99.90
12434;DHT22;6281;49.038;8.372;2023-05-07T14:05:09;25.10;99.90
12434;DHT22;6281;49.038;8.372;2023-05-07T14:07:36;24.70;99.90
12434;DHT22;6281;49.038;8.372;2023-05-07T14:10:03;23.90;99.90
12434;DHT22;6281;49.038;8.372;2023-05-07T14:12:31;23.80;99.90
12434;DHT22;6281;49.038;8.372;2023-05-07T14:14:57;23.80;99.90
12434;DHT22;6281;49.038;8.372;2023-05-07T14:17:26;24.10;99.90
12434;DHT22;6281;49.038;8.372;2023-05-07T14:19:53;24.00;99.90
12434;DHT22;6281;49.038;8.372;2023-05-07T14:22:20;24.00;99.90
12434;DHT22;6281;49.038;8.372;2023-05-07T14:24:47;23.90;99.90
12434;DHT22;6281;49.038;8.372;2023-05-07T14:27:13;23.60;99.90
12434;DHT22;6281;49.038;8.372;2023-05-07T14:29:40;23.20;99.90
12434;DHT22;6281;49.038;8.372;2023-05-07T14:32:08;23.20;99.90
12434;DHT22;6281;49.038;8.372;2023-05-07T14:34:36;23.30;99.90
12434;DHT22;6281;49.038;8.372;2023-05-07T14:37:03;23.10;99.90
12434;DHT22;6281;49.038;8.372;2023-05-07T14:39:30;23.10;99.90
12434;DHT22;6281;49.038;8.372;2023-05-07T14:41:57;23.20;99.90
12434;DHT22;6281;49.038;8.372;2023-05-07T14:44:24;22.80;99.90
12434;DHT22;6281;49.038;8.372;2023-05-07T14:46:51;22.80;99.90
12434;DHT22;6281;49.038;8.372;2023-05-07T14:49:17;23.10;99.90
12434;DHT22;6281;49.038;8.372;2023-05-07T14:51:46;22.70;99.90
12434;DHT22;6281;49.038;8.372;2023-05-07T14:54:13;22.90;99.90
12434;DHT22;6281;49.038;8.372;2023-05-07T14:56:40;22.50;99.90
12434;DHT22;6281;49.038;8.372;2023-05-07T14:59:08;22.70;99.90
12434;DHT22;6281;49.038;8.372;2023-05-07T15:01:35;23.30;99.90
12434;DHT22;6281;49.038;8.372;2023-05-07T15:04:03;23.40;99.90
12434;DHT22;6281;49.038;8.372;2023-05-07T15:06:30;23.30;99.90
12434;DHT22;6281;49.038;8.372;2023-05-07T15:08:58;23.40;99.90
12434;DHT22;6281;49.038;8.372;2023-05-07T15:11:25;22.70;99.90
12434;DHT22;6281;49.038;8.372;2023-05-07T15:13:52;22.90;99.90
12434;DHT22;6281;49.038;8.372;2023-05-07T15:16:19;22.90;99.90
12434;DHT22;6281;49.038;8.372;2023-05-07T15:18:46;22.80;99.90
12434;DHT22;6281;49.038;8.372;2023-05-07T15:21:13;22.70;99.90
12434;DHT22;6281;49.038;8.372;2023-05-07T15:23:39;22.50;99.90
12434;DHT22;6281;49.038;8.372;2023-05-07T15:26:08;22.20;99.90
12434;DHT22;6281;49.038;8.372;2023-05-07T15:28:36;22.40;99.90
12434;DHT22;6281;49.038;8.372;2023-05-07T15:31:03;22.20;99.90
12434;DHT22;6281;49.038;8.372;2023-05-07T15:33:30;22.10;99.90
12434;DHT22;6281;49.038;8.372;2023-05-07T15:35:57;22.30;99.90
12434;DHT22;6281;49.038;8.372;2023-05-07T15:38:25;22.20;99.90
12434;DHT22;6281;49.038;8.372;2023-05-07T15:40:51;22.30;99.90
12434;DHT22;6281;49.038;8.372;2023-05-07T15:43:20;22.30;99.90
12434;DHT22;6281;49.038;8.372;2023-05-07T15:45:49;22.50;99.90
12434;DHT22;6281;49.038;8.372;2023-05-07T15:48:15;22.40;99.90
12434;DHT22;6281;49.038;8.372;2023-05-07T15:50:42;22.50;99.90
12434;DHT22;6281;49.038;8.372;2023-05-07T15:53:09;22.50;99.90
12434;DHT22;6281;49.038;8.372;2023-05-07T15:55:38;22.50;99.90
12434;DHT22;6281;49.038;8.372;2023-05-07T15:58:05;22.60;99.90